Data for 04/22/2009

Time Sea-Level Adjusted Pressure Absolute Pressure Temperature Relative Humidity Dew Point   
(mb) (inHg) (mb) (inHg) (C) (F) (%) (C) (F)
00:05 1017 30.03 846 24.98 11.6 52.8 33 -4 24.8
00:10 1017 30.03 846 24.98 11 51.7 35 -3.8 25.2
00:15 1017 30.03 846 24.98 10.6 51 36 -3.9 25
00:20 1017 30.03 846 24.98 10.6 51.2 35 -4.2 24.5
00:25 1017 30.03 846 24.98 10.7 51.2 36 -3.7 25.3
00:30 1016 30 846 24.98 10.5 50.9 36 -3.8 25.1
00:35 1016 30 846 24.98 10.2 50.4 38 -3.5 25.6
00:40 1016 30 846 24.98 10 50 38 -3.6 25.6
00:45 1016 30 846 24.98 10 50 38 -3.7 25.3
00:50 1016 30 846 24.98 10.1 50.1 37 -4 24.8
00:55 1016 30 846 24.98 10.4 50.7 35 -4.4 24.2
01:00 1016 30 846 24.98 10.8 51.4 33 -4.8 23.3
01:05 1016 30 846 24.98 11.4 52.5 32 -4.5 23.8
01:10 1016 30 846 24.98 11.5 52.7 32 -4.5 23.9
01:15 1016 30 846 24.98 11.5 52.7 33 -4.3 24.3
01:20 1016 30 845 24.95 11.2 52.1 33 -4.5 23.9
01:25 1016 30 845 24.95 11.5 52.7 32 -4.5 23.8
01:30 1016 30 845 24.95 11.3 52.3 33 -4.3 24.3
01:35 1016 30 845 24.95 11.3 52.3 31 -5.1 22.9
01:40 1016 30 845 24.95 11.6 53 32 -4.4 24.1
01:45 1016 30 845 24.95 11.2 52.2 34 -3.9 25
01:50 1016 30 845 24.95 10.7 51.2 37 -3.6 25.6
01:55 1016 30 845 24.95 10.4 50.7 37 -3.7 25.3
02:00 1016 30 845 24.95 10.2 50.4 38 -3.6 25.6
02:05 1016 30 845 24.95 9.8 49.7 40 -2.9 26.7
02:10 1016 30 845 24.95 9.2 48.5 40 -3.8 25.1
02:15 1016 30 845 24.95 9.5 49.1 38 -4.2 24.4
02:20 1016 30 845 24.95 10.1 50.2 36 -4.1 24.6
02:25 1016 30 845 24.95 10.5 50.8 37 -3.6 25.6
02:30 1016 30 845 24.95 10.1 50.3 38 -3.4 25.9
02:35 1016 30 845 24.95 9.9 49.8 38 -3.8 25.2
02:40 1016 30 845 24.95 9.7 49.4 38 -4 24.8
02:45 1015 29.97 845 24.95 10.2 50.3 37 -3.7 25.4
02:50 1015 29.97 845 24.95 10.7 51.3 34 -4.5 23.8
02:55 1015 29.97 845 24.95 11.6 52.8 33 -4 24.9
03:00 1015 29.97 844 24.92 11.2 52.1 36 -3.3 26.1
03:05 1015 29.97 844 24.92 10.5 51 37 -3.4 25.8
03:10 1015 29.97 844 24.92 10.5 50.9 38 -3.3 26
03:15 1015 29.97 844 24.92 10.2 50.3 40 -2.6 27.3
03:20 1015 29.97 844 24.92 9.8 49.7 42 -2.6 27.4
03:25 1015 29.97 844 24.92 9.4 48.9 42 -2.7 27.2
03:30 1015 29.97 844 24.92 9.4 48.9 42 -2.9 26.7
03:35 1015 29.97 844 24.92 8.7 47.6 46 -2.4 27.7
03:40 1015 29.97 844 24.92 7.8 46.1 47 -2.7 27.1
03:45 1015 29.97 844 24.92 7.9 46.2 44 -3.5 25.7
03:50 1015 29.97 844 24.92 8.2 46.7 45 -3.1 26.3
03:55 1015 29.97 844 24.92 8.1 46.6 45 -3.2 26.3
04:00 1015 29.97 844 24.92 8.2 46.8 44 -3.2 26.2
04:05 1015 29.97 844 24.92 8.2 46.7 45 -3 26.6
04:10 1015 29.97 844 24.92 8.2 46.7 46 -2.9 26.8
04:15 1015 29.97 844 24.92 8.6 47.5 45 -2.6 27.3
04:20 1015 29.97 844 24.92 8.6 47.4 45 -2.8 27
04:25 1015 29.97 844 24.92 8.7 47.7 44 -2.9 26.7
04:30 1015 29.97 844 24.92 9.4 48.8 43 -2.7 27.2
04:35 1015 29.97 844 24.92 9.8 49.7 41 -2.8 27
04:40 1015 29.97 844 24.92 10.1 50.1 39 -3.1 26.4
04:45 1015 29.97 844 24.92 10.5 50.8 39 -2.9 26.9
04:50 1015 29.97 844 24.92 10.6 51.1 39 -2.8 26.9
04:55 1015 29.97 844 24.92 10.7 51.2 39 -2.6 27.3
05:00 1015 29.97 844 24.92 10.5 51 39 -2.7 27.2
05:05 1015 29.97 844 24.92 10.3 50.5 41 -2.3 27.8
05:10 1015 29.97 844 24.92 9.8 49.7 42 -2.3 27.8
05:15 1015 29.97 844 24.92 9.3 48.7 45 -2 28.4
05:20 1015 29.97 844 24.92 9 48.2 46 -1.9 28.5
05:25 1015 29.97 844 24.92 8.4 47.2 49 -1.7 28.9
05:30 1015 29.97 844 24.92 8.2 46.7 48 -2.2 28.1
05:35 1015 29.97 844 24.92 8.2 46.7 49 -1.8 28.7
05:40 1015 29.97 844 24.92 8.2 46.8 48 -2.1 28.3
05:45 1015 29.97 844 24.92 8.2 46.7 48 -2.1 28.2
05:50 1015 29.97 844 24.92 8.2 46.8 48 -2.2 28.1
05:55 1015 29.97 844 24.92 8.1 46.6 49 -2.1 28.3
06:00 1015 29.97 844 24.92 7.8 46.1 51 -1.6 29.2
06:05 1015 29.97 844 24.92 7.9 46.1 48 -2.4 27.7
06:10 1015 29.97 844 24.92 7.9 46.3 49 -2.2 28
06:15 1015 29.97 844 24.92 8.1 46.5 48 -2.3 27.8
06:20 1015 29.97 844 24.92 8.1 46.6 50 -1.8 28.8
06:25 1015 29.97 844 24.92 7.9 46.2 51 -1.7 28.9
06:30 1015 29.97 844 24.92 7.9 46.1 50 -1.9 28.6
06:35 1015 29.97 844 24.92 7.8 46 53 -1.3 29.7
06:40 1015 29.97 844 24.92 7.6 45.7 50 -2.1 28.3
06:45 1015 29.97 844 24.92 7.8 46 51 -1.6 29
06:50 1015 29.97 844 24.92 6.7 44.1 56 -1.3 29.6
06:55 1015 29.97 844 24.92 6.1 43 58 -1.4 29.5
07:00 1015 29.97 844 24.92 5.7 42.3 60 -1.5 29.3
07:05 1015 29.97 844 24.92 5.8 42.4 59 -1.6 29.1
07:10 1015 29.97 844 24.92 5.9 42.6 58 -1.7 28.9
07:15 1015 29.97 844 24.92 6.4 43.6 56 -1.7 29
07:20 1015 29.97 844 24.92 6.9 44.4 53 -1.9 28.6
07:25 1015 29.97 844 24.92 7.9 46.2 43 -3.8 25.2
07:30 1015 29.97 844 24.92 10 50 39 -3.1 26.4
07:35 1015 29.97 844 24.92 10.6 51 43 -1.5 29.2
07:40 1015 29.97 844 24.92 9.6 49.3 46 -1.5 29.4
07:45 1015 29.97 844 24.92 9.4 48.9 46 -1.7 29
07:50 1015 29.97 844 24.92 9.7 49.5 46 -1.4 29.5
07:55 1015 29.97 844 24.92 10.1 50.3 44 -1.5 29.3
08:00 1015 29.97 844 24.92 10.7 51.2 43 -1.3 29.7
08:05 1015 29.97 844 24.92 11.1 51.9 42 -1.2 29.9
08:10 1015 29.97 844 24.92 11.6 52.8 41 -1.1 30
08:15 1015 29.97 844 24.92 11.6 52.9 41 -1.2 29.9
08:20 1015 29.97 844 24.92 11.9 53.5 40 -1.3 29.7
08:25 1015 29.97 844 24.92 12.1 53.8 37 -2 28.5
08:30 1015 29.97 844 24.92 12.4 54.3 41 -0.4 31.3
08:35 1015 29.97 844 24.92 12.6 54.6 41 -0.4 31.3
08:40 1015 29.97 844 24.92 12.8 55 40 -0.3 31.4
08:45 1014 29.94 844 24.92 13.4 56.2 37 -0.7 30.7
08:50 1014 29.94 844 24.92 14.2 57.5 36 -0.7 30.8
08:55 1014 29.94 844 24.92 14.9 58.9 33 -1.1 30
09:00 1014 29.94 844 24.92 15.5 59.9 29 -2.5 27.5
09:05 1014 29.94 844 24.92 16.2 61.1 29 -1.9 28.5
09:10 1014 29.94 843 24.89 15.9 60.6 29 -2.1 28.2
09:15 1014 29.94 843 24.89 15.5 59.9 30 -1.9 28.5
09:20 1014 29.94 843 24.89 15.8 60.4 29 -2.2 28
09:25 1014 29.94 843 24.89 16.6 61.8 27 -2.3 27.8
09:30 1014 29.94 843 24.89 17.5 63.4 26 -1.9 28.5
09:35 1014 29.94 843 24.89 16.8 62.3 27 -2.3 27.8
09:40 1014 29.94 843 24.89 16.3 61.4 28 -1.9 28.6
09:45 1014 29.94 843 24.89 16.4 61.6 28 -1.9 28.5
09:50 1014 29.94 843 24.89 17.2 63 27 -1.9 28.6
09:55 1014 29.94 843 24.89 17.8 64 26 -1.7 28.9
10:00 1014 29.94 843 24.89 18.6 65.4 25 -1.6 29.1
10:05 1014 29.94 843 24.89 18.7 65.7 26 -1.2 29.9
10:10 1014 29.94 843 24.89 19.1 66.4 24 -1.6 29.2
10:15 1014 29.94 843 24.89 19.4 67 25 -1.1 30
10:20 1014 29.94 843 24.89 19.5 67 25 -0.9 30.5
10:25 1014 29.94 843 24.89 19.2 66.5 25 -1 30.3
10:30 1014 29.94 843 24.89 18.7 65.6 26 -1 30.1
10:35 1014 29.94 843 24.89 19.2 66.5 25 -1.2 29.8
10:40 1014 29.94 843 24.89 19.2 66.6 26 -0.5 31.1
10:45 1013 29.91 843 24.89 19.5 67.1 25 -0.8 30.6
10:50 1013 29.91 843 24.89 19.5 67.1 26 -0.3 31.4
10:55 1013 29.91 843 24.89 19.7 67.4 25 -0.5 31.1
11:00 1013 29.91 843 24.89 20.2 68.3 25 -0.4 31.4
11:05 1013 29.91 842 24.86 20.5 68.8 25 0.1 32.2
11:10 1013 29.91 842 24.86 19.9 67.8 26 0 32
11:15 1013 29.91 842 24.86 20.2 68.3 26 0.1 32.2
11:20 1013 29.91 842 24.86 20.2 68.4 26 0.2 32.3
11:25 1013 29.91 842 24.86 20.5 68.8 25 -0.1 31.8
11:30 1013 29.91 842 24.86 20.2 68.4 25 -0 32
11:35 1013 29.91 842 24.86 21.3 70.3 22 -0.9 30.4
11:40 1013 29.91 842 24.86 21 69.8 22 -1.4 29.5
11:45 1013 29.91 842 24.86 20.8 69.4 20 -2.6 27.3
11:50 1013 29.91 842 24.86 20.8 69.4 23 -1.3 29.7
11:55 1013 29.91 842 24.86 21.3 70.4 21 -1.5 29.3
12:00 1013 29.91 842 24.86 21.6 70.9 21 -1.5 29.2
12:05 1012 29.88 842 24.86 21.7 71 20 -1.7 28.9
12:10 1012 29.88 842 24.86 21.3 70.3 20 -2.6 27.3
12:15 1012 29.88 841 24.83 21 69.8 18 -3.7 25.3
12:20 1012 29.88 841 24.83 21.4 70.5 15 -6.3 20.7
12:25 1012 29.88 841 24.83 21.3 70.3 14 -7.3 18.8
12:30 1012 29.88 841 24.83 21 69.8 14 -7.1 19.3
12:35 1012 29.88 841 24.83 21.5 70.6 14 -6.6 20.2
12:40 1012 29.88 841 24.83 21.4 70.4 14 -7.2 19
12:45 1012 29.88 841 24.83 21.5 70.7 14 -7.3 18.9
12:50 1012 29.88 841 24.83 21.5 70.7 13 -7.7 18.2
12:55 1012 29.88 841 24.83 21.6 70.8 13 -7.9 17.9
13:00 1012 29.88 841 24.83 21.5 70.7 14 -7.1 19.3
13:05 1012 29.88 841 24.83 21.9 71.4 13 -7.3 18.8
13:10 1011 29.85 841 24.83 21.8 71.2 14 -7.1 19.2
13:15 1011 29.85 841 24.83 21.8 71.3 14 -6.9 19.6
13:20 1011 29.85 840 24.81 22.1 71.8 13 -7 19.4
13:25 1011 29.85 840 24.81 22 71.5 15 -6 21.1
13:30 1011 29.85 840 24.81 22 71.5 14 -6.7 20
13:35 1011 29.85 840 24.81 22.4 72.3 13 -6.8 19.7
13:40 1011 29.85 840 24.81 22.6 72.7 14 -6.5 20.4
13:45 1011 29.85 840 24.81 22.9 73.1 13 -6.8 19.7
13:50 1011 29.85 840 24.81 22.5 72.6 13 -7.3 18.9
13:55 1011 29.85 840 24.81 22 71.5 13 -7.2 19.1
14:00 1011 29.85 840 24.81 21.9 71.3 14 -6.9 19.6
14:05 1011 29.85 840 24.81 22.1 71.8 15 -5.9 21.3
14:10 1011 29.85 840 24.81 22 71.7 14 -6.8 19.8
14:15 1011 29.85 840 24.81 22.1 71.7 14 -6.7 20
14:20 1010 29.83 840 24.81 22.3 72.1 14 -5.9 21.3
14:25 1010 29.83 840 24.81 22.4 72.3 14 -6 21.2
14:30 1010 29.83 840 24.81 22.4 72.4 14 -6.6 20.1
14:35 1010 29.83 839 24.78 22.5 72.5 12 -8 17.5
14:40 1010 29.83 839 24.78 22.5 72.6 12 -7.7 18.2
14:45 1010 29.83 839 24.78 22.6 72.7 12 -7.6 18.4
14:50 1010 29.83 839 24.78 22.5 72.5 12 -8.6 16.4
14:55 1010 29.83 839 24.78 22.5 72.6 11 -9 15.8
15:00 1010 29.83 839 24.78 22.6 72.6 11 -9.4 15
15:05 1010 29.83 839 24.78 22.8 73.1 11 -9.1 15.7
15:10 1010 29.83 839 24.78 22.7 72.9 11 -9.5 14.8
15:15 1010 29.83 839 24.78 22.7 72.8 11 -8.8 16.2
15:20 1010 29.83 839 24.78 22.6 72.8 12 -8.4 17
15:25 1010 29.83 839 24.78 22.9 73.2 11 -8.4 16.8
15:30 1010 29.83 839 24.78 23.3 73.9 12 -7.4 18.6
15:35 1010 29.83 839 24.78 23.3 73.9 12 -8 17.7
15:40 1009 29.8 839 24.78 22.9 73.3 12 -8.3 17
15:45 1009 29.8 839 24.78 22.4 72.3 12 -8 17.5
15:50 1009 29.8 839 24.78 22.6 72.7 12 -8.4 16.9
15:55 1009 29.8 838 24.75 22.4 72.2 11 -8.8 16.1
16:00 1009 29.8 838 24.75 22.5 72.4 12 -7.9 17.7
16:05 1009 29.8 838 24.75 22.9 73.2 12 -8.2 17.3
16:10 1009 29.8 838 24.75 23 73.4 11 -9.1 15.6
16:15 1009 29.8 838 24.75 22.8 73.1 12 -8.4 17
16:20 1009 29.8 838 24.75 23.1 73.6 11 -8.3 17.1
16:25 1009 29.8 838 24.75 23.3 73.9 12 -7.6 18.4
16:30 1009 29.8 838 24.75 22.8 73 12 -7.6 18.3
16:35 1009 29.8 838 24.75 22.1 71.8 13 -7.8 18
16:40 1009 29.8 838 24.75 21.9 71.4 12 -8.3 17.1
16:45 1009 29.8 838 24.75 22 71.6 12 -9.1 15.7
16:50 1008 29.77 838 24.75 21.8 71.2 12 -8.9 16.1
16:55 1008 29.77 838 24.75 21.8 71.2 13 -7.9 17.8
17:00 1008 29.77 838 24.75 21.7 71.1 13 -7.7 18.1
17:05 1008 29.77 838 24.75 22.1 71.7 12 -8.2 17.2
17:10 1008 29.77 838 24.75 22.7 72.8 12 -7.7 18.1
17:15 1008 29.77 837 24.72 22.9 73.2 12 -7.7 18.2
17:20 1008 29.77 837 24.72 22.7 72.9 11 -9 15.8
17:25 1008 29.77 837 24.72 23 73.3 12 -8.2 17.2
17:30 1008 29.77 837 24.72 22.8 73 11 -9 15.8
17:35 1008 29.77 837 24.72 22.1 71.8 11 -9.3 15.2
17:40 1008 29.77 837 24.72 22.6 72.6 11 -9.2 15.4
17:45 1008 29.77 837 24.72 22.9 73.2 11 -8.5 16.6
17:50 1008 29.77 837 24.72 23.1 73.5 11 -8.4 17
17:55 1008 29.77 837 24.72 23.2 73.7 11 -9.3 15.2
18:00 1008 29.77 837 24.72 23.2 73.8 10 -9.4 15
18:05 1008 29.77 837 24.72 23.1 73.6 11 -8.4 16.9
18:10 1008 29.77 837 24.72 22.9 73.2 11 -9.5 14.9
18:15 1008 29.77 837 24.72 22.6 72.6 12 -8.6 16.6
18:20 1008 29.77 837 24.72 22.6 72.6 11 -9.6 14.8
18:25 1008 29.77 837 24.72 22.5 72.5 12 -8.5 16.8
18:30 1008 29.77 837 24.72 22.3 72.1 13 -7.8 17.9
18:35 1008 29.77 837 24.72 22 71.7 12 -8.9 15.9
18:40 1008 29.77 837 24.72 21.9 71.4 11 -9.5 14.9
18:45 1008 29.77 837 24.72 21.8 71.2 12 -8.6 16.5
18:50 1008 29.77 837 24.72 21.7 71 13 -8.1 17.4
18:55 1008 29.77 837 24.72 21.5 70.7 13 -7.8 18
19:00 1007 29.74 837 24.72 21.3 70.3 13 -8 17.5
19:05 1007 29.74 837 24.72 21.2 70.1 13 -8.5 16.6
19:10 1007 29.74 837 24.72 21.2 70.2 14 -7.5 18.4
19:15 1007 29.74 837 24.72 21.1 70 14 -7.5 18.4
19:20 1007 29.74 837 24.72 21 69.8 14 -7.6 18.4
19:25 1007 29.74 837 24.72 20.9 69.6 14 -7.3 18.8
19:30 1007 29.74 837 24.72 20.7 69.3 15 -7 19.4
19:35 1007 29.74 837 24.72 20.6 69 15 -6.8 19.8
19:40 1007 29.74 837 24.72 20.4 68.8 15 -6.8 19.8
19:45 1007 29.74 837 24.72 20.2 68.3 16 -6.6 20.1
19:50 1007 29.74 837 24.72 20 67.9 15 -7.1 19.2
19:55 1007 29.74 837 24.72 19.8 67.7 15 -7.1 19.2
20:00 1007 29.74 837 24.72 19.7 67.4 16 -7 19.4
20:05 1007 29.74 837 24.72 19.4 67 15 -7.4 18.7
20:10 1007 29.74 837 24.72 19.2 66.5 15 -7.7 18.1
20:15 1007 29.74 837 24.72 19 66.3 15 -8.2 17.2
20:20 1007 29.74 837 24.72 18.8 65.8 15 -8 17.5
20:25 1008 29.77 837 24.72 18.5 65.3 15 -8.2 17.3
20:30 1008 29.77 837 24.72 18.3 65 15 -8.3 17.1
20:35 1008 29.77 837 24.72 18.2 64.7 16 -8 17.7
20:40 1008 29.77 837 24.72 18 64.4 17 -7.4 18.7
20:45 1008 29.77 837 24.72 17.6 63.7 18 -6.9 19.6
20:50 1008 29.77 837 24.72 17.2 63 19 -6.7 19.9
20:55 1008 29.77 837 24.72 17.1 62.8 19 -6.9 19.6
21:00 1008 29.77 837 24.72 17 62.5 19 -6.7 20
21:05 1008 29.77 837 24.72 16.9 62.3 19 -6.7 20
21:10 1008 29.77 837 24.72 16.8 62.2 20 -6.3 20.6
21:15 1008 29.77 837 24.72 16.5 61.7 20 -6.3 20.7
21:20 1008 29.77 837 24.72 16.3 61.4 21 -5.8 21.6
21:25 1008 29.77 837 24.72 16.1 61 21 -6.4 20.5
21:30 1008 29.77 837 24.72 16.1 61.1 21 -6.1 21
21:35 1008 29.77 837 24.72 16 60.7 22 -5.8 21.5
21:40 1008 29.77 837 24.72 15.9 60.6 23 -5.3 22.4
21:45 1008 29.77 837 24.72 15.7 60.3 22 -5.7 21.8
21:50 1008 29.77 837 24.72 15.9 60.6 22 -5.5 22.2
21:55 1008 29.77 837 24.72 15.4 59.8 24 -5.1 22.8
22:00 1008 29.77 837 24.72 15.4 59.8 22 -5.9 21.3
22:05 1008 29.77 837 24.72 15.9 60.7 22 -5.6 21.9
22:10 1008 29.77 837 24.72 15.4 59.7 25 -4.4 24
22:15 1008 29.77 837 24.72 14.7 58.4 25 -4.9 23.1
22:20 1008 29.77 837 24.72 14.5 58.1 25 -5.1 22.8
22:25 1008 29.77 837 24.72 14.7 58.4 25 -5.3 22.5
22:30 1008 29.77 837 24.72 14.8 58.6 25 -4.8 23.3
22:35 1008 29.77 837 24.72 14.8 58.7 25 -4.9 23.1
22:40 1008 29.77 837 24.72 14.6 58.4 26 -4.5 24
22:45 1008 29.77 837 24.72 14.3 57.7 26 -4.8 23.4
22:50 1008 29.77 837 24.72 14.3 57.7 27 -4.5 23.9
22:55 1008 29.77 837 24.72 14.1 57.3 27 -4.4 24
23:00 1008 29.77 837 24.72 13.9 57.1 27 -4.8 23.3
23:05 1008 29.77 837 24.72 13.9 57 28 -4.4 24.1
23:10 1008 29.77 837 24.72 13.6 56.5 28 -4.5 23.9
23:15 1008 29.77 837 24.72 13.5 56.4 28 -4.4 24
23:20 1008 29.77 837 24.72 13.5 56.3 28 -4.4 24.1
23:25 1008 29.77 837 24.72 13.3 55.9 28 -4.6 23.7
23:30 1007 29.74 837 24.72 13.3 55.9 29 -4.5 23.9
23:35 1007 29.74 837 24.72 13.3 55.9 29 -4.4 24
23:40 1007 29.74 837 24.72 13.1 55.6 28 -4.9 23.2
23:45 1007 29.74 836 24.69 13.3 55.9 28 -4.6 23.7
23:50 1007 29.74 837 24.72 13.2 55.7 29 -4.5 23.9
23:55 1007 29.74 837 24.72 13 55.4 29 -4.3 24.2
24:00 1008 29.77 837 24.72 12.8 55 31 -4 24.8